sensor_id;sensor_type;location;lat;lon;timestamp;P1;durP1;ratioP1;P2;durP2;ratioP2
34872;SDS011;21084;51.098;14.506;2022-09-20T00:00:26;11.13;;;6.03;;
34872;SDS011;21084;51.098;14.506;2022-09-20T00:02:57;7.43;;;4.67;;
34872;SDS011;21084;51.098;14.506;2022-09-20T00:07:55;7.28;;;2.97;;
34872;SDS011;21084;51.098;14.506;2022-09-20T00:10:26;4.97;;;3.05;;
34872;SDS011;21084;51.098;14.506;2022-09-20T00:12:57;5.13;;;2.80;;
34872;SDS011;21084;51.098;14.506;2022-09-20T00:15:25;4.95;;;3.30;;
34872;SDS011;21084;51.098;14.506;2022-09-20T00:17:54;7.00;;;3.65;;
34872;SDS011;21084;51.098;14.506;2022-09-20T00:20:26;5.22;;;3.25;;
34872;SDS011;21084;51.098;14.506;2022-09-20T00:22:55;3.30;;;3.00;;
34872;SDS011;21084;51.098;14.506;2022-09-20T00:25:23;6.38;;;3.40;;
34872;SDS011;21084;51.098;14.506;2022-09-20T00:27:51;5.40;;;3.17;;
34872;SDS011;21084;51.098;14.506;2022-09-20T00:30:19;5.47;;;3.40;;
34872;SDS011;21084;51.098;14.506;2022-09-20T00:32:47;5.90;;;2.50;;
34872;SDS011;21084;51.098;14.506;2022-09-20T00:35:15;2.95;;;1.70;;
34872;SDS011;21084;51.098;14.506;2022-09-20T00:37:44;3.15;;;1.77;;
34872;SDS011;21084;51.098;14.506;2022-09-20T00:42:42;4.47;;;1.17;;
34872;SDS011;21084;51.098;14.506;2022-09-20T00:45:11;3.05;;;1.08;;
34872;SDS011;21084;51.098;14.506;2022-09-20T00:47:47;2.25;;;1.20;;
34872;SDS011;21084;51.098;14.506;2022-09-20T00:50:24;1.45;;;1.20;;
34872;SDS011;21084;51.098;14.506;2022-09-20T00:53:02;1.73;;;1.08;;
34872;SDS011;21084;51.098;14.506;2022-09-20T00:55:33;4.07;;;1.50;;
34872;SDS011;21084;51.098;14.506;2022-09-20T00:58:05;1.60;;;1.23;;
34872;SDS011;21084;51.098;14.506;2022-09-20T01:00:34;1.52;;;1.17;;
34872;SDS011;21084;51.098;14.506;2022-09-20T01:03:04;4.82;;;1.10;;
34872;SDS011;21084;51.098;14.506;2022-09-20T01:05:35;2.97;;;1.30;;
34872;SDS011;21084;51.098;14.506;2022-09-20T01:08:06;1.42;;;1.00;;
34872;SDS011;21084;51.098;14.506;2022-09-20T01:10:35;2.08;;;1.10;;
34872;SDS011;21084;51.098;14.506;2022-09-20T01:13:03;2.55;;;1.08;;
34872;SDS011;21084;51.098;14.506;2022-09-20T01:15:31;2.70;;;1.50;;
34872;SDS011;21084;51.098;14.506;2022-09-20T01:18:02;2.05;;;1.13;;
34872;SDS011;21084;51.098;14.506;2022-09-20T01:20:34;2.90;;;0.95;;
34872;SDS011;21084;51.098;14.506;2022-09-20T01:23:10;2.88;;;0.98;;
34872;SDS011;21084;51.098;14.506;2022-09-20T01:28:50;2.17;;;0.80;;
34872;SDS011;21084;51.098;14.506;2022-09-20T01:31:25;0.93;;;0.80;;
34872;SDS011;21084;51.098;14.506;2022-09-20T01:33:58;2.20;;;1.00;;
34872;SDS011;21084;51.098;14.506;2022-09-20T01:36:32;1.40;;;0.90;;
34872;SDS011;21084;51.098;14.506;2022-09-20T01:39:07;1.75;;;0.85;;
34872;SDS011;21084;51.098;14.506;2022-09-20T01:41:41;0.85;;;0.70;;
34872;SDS011;21084;51.098;14.506;2022-09-20T01:44:19;1.52;;;0.80;;
34872;SDS011;21084;51.098;14.506;2022-09-20T01:46:55;1.88;;;0.82;;
34872;SDS011;21084;51.098;14.506;2022-09-20T01:49:33;0.68;;;0.68;;
34872;SDS011;21084;51.098;14.506;2022-09-20T02:01:52;1.40;;;0.50;;
34872;SDS011;21084;51.098;14.506;2022-09-20T02:07:36;1.45;;;0.40;;
34872;SDS011;21084;51.098;14.506;2022-09-20T02:10:27;1.02;;;0.30;;
34872;SDS011;21084;51.098;14.506;2022-09-20T02:13:05;0.45;;;0.40;;
34872;SDS011;21084;51.098;14.506;2022-09-20T02:15:45;0.38;;;0.35;;
34872;SDS011;21084;51.098;14.506;2022-09-20T02:18:35;0.47;;;0.43;;
34872;SDS011;21084;51.098;14.506;2022-09-20T02:21:13;0.70;;;0.47;;
34872;SDS011;21084;51.098;14.506;2022-09-20T02:23:54;0.32;;;0.30;;
34872;SDS011;21084;51.098;14.506;2022-09-20T02:26:32;2.30;;;0.30;;
34872;SDS011;21084;51.098;14.506;2022-09-20T02:29:11;2.05;;;0.52;;
34872;SDS011;21084;51.098;14.506;2022-09-20T02:31:52;1.20;;;0.70;;
34872;SDS011;21084;51.098;14.506;2022-09-20T02:34:44;0.68;;;0.47;;
34872;SDS011;21084;51.098;14.506;2022-09-20T02:37:29;0.60;;;0.50;;
34872;SDS011;21084;51.098;14.506;2022-09-20T02:40:19;1.30;;;0.60;;
34872;SDS011;21084;51.098;14.506;2022-09-20T02:42:55;0.60;;;0.60;;
34872;SDS011;21084;51.098;14.506;2022-09-20T02:45:33;3.00;;;0.60;;
34872;SDS011;21084;51.098;14.506;2022-09-20T02:48:07;3.00;;;0.90;;
34872;SDS011;21084;51.098;14.506;2022-09-20T02:50:39;3.83;;;0.80;;
34872;SDS011;21084;51.098;14.506;2022-09-20T02:53:17;1.02;;;0.93;;
34872;SDS011;21084;51.098;14.506;2022-09-20T02:55:58;1.20;;;1.10;;
34872;SDS011;21084;51.098;14.506;2022-09-20T02:58:35;3.72;;;1.70;;
34872;SDS011;21084;51.098;14.506;2022-09-20T03:01:16;4.03;;;1.35;;
34872;SDS011;21084;51.098;14.506;2022-09-20T03:03:59;3.65;;;2.30;;
34872;SDS011;21084;51.098;14.506;2022-09-20T03:06:41;4.57;;;2.20;;
34872;SDS011;21084;51.098;14.506;2022-09-20T03:09:17;3.75;;;2.20;;
34872;SDS011;21084;51.098;14.506;2022-09-20T03:11:59;6.97;;;2.75;;
34872;SDS011;21084;51.098;14.506;2022-09-20T03:14:35;8.23;;;2.85;;
34872;SDS011;21084;51.098;14.506;2022-09-20T03:17:05;3.97;;;2.92;;
34872;SDS011;21084;51.098;14.506;2022-09-20T03:19:47;7.35;;;3.63;;
34872;SDS011;21084;51.098;14.506;2022-09-20T03:22:30;5.63;;;4.22;;
34872;SDS011;21084;51.098;14.506;2022-09-20T03:25:18;7.22;;;4.70;;
34872;SDS011;21084;51.098;14.506;2022-09-20T03:28:21;9.20;;;5.20;;
34872;SDS011;21084;51.098;14.506;2022-09-20T03:31:03;8.68;;;5.30;;
34872;SDS011;21084;51.098;14.506;2022-09-20T03:33:41;12.68;;;6.15;;
34872;SDS011;21084;51.098;14.506;2022-09-20T03:36:19;12.00;;;6.38;;
34872;SDS011;21084;51.098;14.506;2022-09-20T03:42:08;13.88;;;7.47;;
34872;SDS011;21084;51.098;14.506;2022-09-20T03:44:55;15.27;;;7.90;;
34872;SDS011;21084;51.098;14.506;2022-09-20T03:47:43;15.25;;;8.55;;
34872;SDS011;21084;51.098;14.506;2022-09-20T03:50:46;18.38;;;8.70;;
34872;SDS011;21084;51.098;14.506;2022-09-20T03:53:55;19.27;;;8.90;;
34872;SDS011;21084;51.098;14.506;2022-09-20T03:57:06;19.10;;;10.25;;
34872;SDS011;21084;51.098;14.506;2022-09-20T03:59:55;21.27;;;11.57;;
34872;SDS011;21084;51.098;14.506;2022-09-20T04:03:00;18.52;;;10.18;;
34872;SDS011;21084;51.098;14.506;2022-09-20T04:05:40;16.30;;;10.18;;
34872;SDS011;21084;51.098;14.506;2022-09-20T04:08:21;20.25;;;12.25;;
34872;SDS011;21084;51.098;14.506;2022-09-20T04:11:06;20.42;;;11.60;;
34872;SDS011;21084;51.098;14.506;2022-09-20T04:13:46;18.40;;;10.90;;
34872;SDS011;21084;51.098;14.506;2022-09-20T04:16:22;17.43;;;11.10;;
34872;SDS011;21084;51.098;14.506;2022-09-20T04:19:02;16.92;;;10.88;;
34872;SDS011;21084;51.098;14.506;2022-09-20T04:21:37;16.92;;;10.90;;
34872;SDS011;21084;51.098;14.506;2022-09-20T04:24:14;20.17;;;10.23;;
34872;SDS011;21084;51.098;14.506;2022-09-20T04:26:49;25.23;;;10.60;;
34872;SDS011;21084;51.098;14.506;2022-09-20T04:29:28;26.48;;;11.10;;
34872;SDS011;21084;51.098;14.506;2022-09-20T04:32:02;18.67;;;10.43;;
34872;SDS011;21084;51.098;14.506;2022-09-20T04:34:43;19.30;;;10.80;;
34872;SDS011;21084;51.098;14.506;2022-09-20T04:37:33;17.98;;;9.95;;
34872;SDS011;21084;51.098;14.506;2022-09-20T04:40:09;26.17;;;11.13;;
34872;SDS011;21084;51.098;14.506;2022-09-20T04:43:04;15.13;;;9.85;;
34872;SDS011;21084;51.098;14.506;2022-09-20T04:52:11;20.15;;;10.02;;
34872;SDS011;21084;51.098;14.506;2022-09-20T04:55:07;21.40;;;10.82;;
34872;SDS011;21084;51.098;14.506;2022-09-20T04:58:30;23.75;;;10.80;;
34872;SDS011;21084;51.098;14.506;2022-09-20T05:14:26;25.35;;;11.60;;
34872;SDS011;21084;51.098;14.506;2022-09-20T05:17:19;23.67;;;12.30;;
34872;SDS011;21084;51.098;14.506;2022-09-20T05:23:07;23.45;;;12.75;;
34872;SDS011;21084;51.098;14.506;2022-09-20T05:26:04;24.27;;;12.35;;
34872;SDS011;21084;51.098;14.506;2022-09-20T05:28:38;28.15;;;13.35;;
34872;SDS011;21084;51.098;14.506;2022-09-20T05:31:17;19.83;;;10.52;;
34872;SDS011;21084;51.098;14.506;2022-09-20T05:33:55;19.58;;;10.45;;
34872;SDS011;21084;51.098;14.506;2022-09-20T05:36:30;15.73;;;9.98;;
34872;SDS011;21084;51.098;14.506;2022-09-20T05:39:11;19.08;;;8.90;;
34872;SDS011;21084;51.098;14.506;2022-09-20T05:41:53;19.42;;;8.93;;
34872;SDS011;21084;51.098;14.506;2022-09-20T05:44:28;14.25;;;7.07;;
34872;SDS011;21084;51.098;14.506;2022-09-20T05:47:08;14.75;;;7.00;;
34872;SDS011;21084;51.098;14.506;2022-09-20T05:49:48;12.18;;;7.50;;
34872;SDS011;21084;51.098;14.506;2022-09-20T05:52:27;10.75;;;6.53;;
34872;SDS011;21084;51.098;14.506;2022-09-20T05:58:30;12.90;;;6.45;;
34872;SDS011;21084;51.098;14.506;2022-09-20T06:01:10;13.50;;;7.07;;
34872;SDS011;21084;51.098;14.506;2022-09-20T06:03:44;10.88;;;6.05;;
34872;SDS011;21084;51.098;14.506;2022-09-20T06:06:20;10.07;;;6.30;;
34872;SDS011;21084;51.098;14.506;2022-09-20T06:09:14;10.85;;;6.47;;
34872;SDS011;21084;51.098;14.506;2022-09-20T06:12:02;10.15;;;5.95;;
34872;SDS011;21084;51.098;14.506;2022-09-20T06:14:46;9.07;;;5.18;;
34872;SDS011;21084;51.098;14.506;2022-09-20T06:17:22;9.07;;;5.75;;
34872;SDS011;21084;51.098;14.506;2022-09-20T06:19:59;12.02;;;5.32;;
34872;SDS011;21084;51.098;14.506;2022-09-20T06:22:40;7.93;;;4.43;;
34872;SDS011;21084;51.098;14.506;2022-09-20T06:25:14;9.73;;;4.10;;
34872;SDS011;21084;51.098;14.506;2022-09-20T06:27:48;9.38;;;4.28;;
34872;SDS011;21084;51.098;14.506;2022-09-20T06:30:21;4.80;;;3.58;;
34872;SDS011;21084;51.098;14.506;2022-09-20T06:32:54;6.07;;;3.13;;
34872;SDS011;21084;51.098;14.506;2022-09-20T06:35:24;7.05;;;3.30;;
34872;SDS011;21084;51.098;14.506;2022-09-20T06:38:01;6.55;;;3.60;;
34872;SDS011;21084;51.098;14.506;2022-09-20T06:41:00;7.57;;;4.97;;
34872;SDS011;21084;51.098;14.506;2022-09-20T06:43:48;13.63;;;8.07;;
34872;SDS011;21084;51.098;14.506;2022-09-20T06:46:18;11.82;;;4.68;;
34872;SDS011;21084;51.098;14.506;2022-09-20T06:48:48;12.57;;;9.60;;
34872;SDS011;21084;51.098;14.506;2022-09-20T06:51:16;7.30;;;4.45;;
34872;SDS011;21084;51.098;14.506;2022-09-20T06:53:44;9.13;;;5.22;;
34872;SDS011;21084;51.098;14.506;2022-09-20T06:56:14;8.05;;;5.25;;
34872;SDS011;21084;51.098;14.506;2022-09-20T06:58:45;6.50;;;2.85;;
34872;SDS011;21084;51.098;14.506;2022-09-20T07:01:13;6.63;;;3.17;;
34872;SDS011;21084;51.098;14.506;2022-09-20T07:03:56;4.38;;;3.17;;
34872;SDS011;21084;51.098;14.506;2022-09-20T07:08:54;6.07;;;3.97;;
34872;SDS011;21084;51.098;14.506;2022-09-20T07:11:22;9.63;;;4.40;;
34872;SDS011;21084;51.098;14.506;2022-09-20T07:13:50;4.53;;;3.53;;
34872;SDS011;21084;51.098;14.506;2022-09-20T07:16:20;8.93;;;4.28;;
34872;SDS011;21084;51.098;14.506;2022-09-20T07:18:49;10.00;;;5.70;;
34872;SDS011;21084;51.098;14.506;2022-09-20T07:21:20;14.90;;;7.70;;
34872;SDS011;21084;51.098;14.506;2022-09-20T07:23:48;8.85;;;5.82;;
34872;SDS011;21084;51.098;14.506;2022-09-20T07:26:17;3.88;;;2.92;;
34872;SDS011;21084;51.098;14.506;2022-09-20T07:28:47;4.70;;;3.42;;
34872;SDS011;21084;51.098;14.506;2022-09-20T07:31:16;6.47;;;3.00;;
34872;SDS011;21084;51.098;14.506;2022-09-20T07:33:45;5.33;;;2.57;;
34872;SDS011;21084;51.098;14.506;2022-09-20T07:36:13;3.90;;;2.20;;
34872;SDS011;21084;51.098;14.506;2022-09-20T07:38:45;4.05;;;2.50;;
34872;SDS011;21084;51.098;14.506;2022-09-20T07:41:14;6.30;;;2.75;;
34872;SDS011;21084;51.098;14.506;2022-09-20T07:46:12;3.78;;;3.10;;
34872;SDS011;21084;51.098;14.506;2022-09-20T07:48:40;7.32;;;4.32;;
34872;SDS011;21084;51.098;14.506;2022-09-20T07:51:09;5.38;;;3.85;;
34872;SDS011;21084;51.098;14.506;2022-09-20T07:53:39;6.03;;;4.10;;
34872;SDS011;21084;51.098;14.506;2022-09-20T07:56:10;7.95;;;4.90;;
34872;SDS011;21084;51.098;14.506;2022-09-20T07:58:39;7.97;;;5.05;;
34872;SDS011;21084;51.098;14.506;2022-09-20T08:01:15;11.15;;;5.78;;
34872;SDS011;21084;51.098;14.506;2022-09-20T08:03:43;10.98;;;5.68;;
34872;SDS011;21084;51.098;14.506;2022-09-20T08:06:11;11.32;;;5.47;;
34872;SDS011;21084;51.098;14.506;2022-09-20T08:08:40;14.38;;;6.68;;
34872;SDS011;21084;51.098;14.506;2022-09-20T08:11:10;11.10;;;6.88;;
34872;SDS011;21084;51.098;14.506;2022-09-20T08:13:41;15.02;;;9.10;;
34872;SDS011;21084;51.098;14.506;2022-09-20T08:16:35;12.85;;;7.82;;
34872;SDS011;21084;51.098;14.506;2022-09-20T08:19:04;15.18;;;8.57;;
34872;SDS011;21084;51.098;14.506;2022-09-20T08:21:34;11.05;;;6.63;;
34872;SDS011;21084;51.098;14.506;2022-09-20T08:24:03;11.80;;;8.38;;
34872;SDS011;21084;51.098;14.506;2022-09-20T08:26:36;6.35;;;4.75;;
34872;SDS011;21084;51.098;14.506;2022-09-20T08:29:06;9.32;;;5.53;;
34872;SDS011;21084;51.098;14.506;2022-09-20T08:31:36;8.15;;;6.20;;
34872;SDS011;21084;51.098;14.506;2022-09-20T08:34:06;10.38;;;6.35;;
34872;SDS011;21084;51.098;14.506;2022-09-20T08:36:37;11.15;;;6.65;;
34872;SDS011;21084;51.098;14.506;2022-09-20T08:39:13;10.23;;;6.93;;
34872;SDS011;21084;51.098;14.506;2022-09-20T08:42:12;12.68;;;7.10;;
34872;SDS011;21084;51.098;14.506;2022-09-20T08:44:50;11.25;;;6.05;;
34872;SDS011;21084;51.098;14.506;2022-09-20T08:47:53;11.35;;;5.97;;
34872;SDS011;21084;51.098;14.506;2022-09-20T08:50:30;9.00;;;6.70;;
34872;SDS011;21084;51.098;14.506;2022-09-20T08:53:08;11.15;;;6.20;;
34872;SDS011;21084;51.098;14.506;2022-09-20T08:56:02;9.30;;;6.88;;
34872;SDS011;21084;51.098;14.506;2022-09-20T08:59:01;12.85;;;6.13;;
34872;SDS011;21084;51.098;14.506;2022-09-20T09:02:06;9.27;;;5.50;;
34872;SDS011;21084;51.098;14.506;2022-09-20T09:04:44;7.57;;;4.57;;
34872;SDS011;21084;51.098;14.506;2022-09-20T09:07:18;4.35;;;3.00;;
34872;SDS011;21084;51.098;14.506;2022-09-20T09:09:54;3.50;;;2.80;;
34872;SDS011;21084;51.098;14.506;2022-09-20T09:12:27;5.03;;;3.80;;
34872;SDS011;21084;51.098;14.506;2022-09-20T09:15:20;7.25;;;4.22;;
34872;SDS011;21084;51.098;14.506;2022-09-20T09:17:55;3.55;;;2.97;;
34872;SDS011;21084;51.098;14.506;2022-09-20T09:20:27;6.45;;;2.40;;
34872;SDS011;21084;51.098;14.506;2022-09-20T09:22:59;2.97;;;2.05;;
34872;SDS011;21084;51.098;14.506;2022-09-20T09:25:30;6.07;;;2.47;;
34872;SDS011;21084;51.098;14.506;2022-09-20T09:28:00;2.38;;;1.90;;
34872;SDS011;21084;51.098;14.506;2022-09-20T09:30:42;2.28;;;1.70;;
34872;SDS011;21084;51.098;14.506;2022-09-20T09:33:34;3.60;;;2.17;;
34872;SDS011;21084;51.098;14.506;2022-09-20T09:36:25;4.72;;;2.08;;
34872;SDS011;21084;51.098;14.506;2022-09-20T09:39:21;2.80;;;2.13;;
34872;SDS011;21084;51.098;14.506;2022-09-20T09:41:57;4.65;;;3.22;;
34872;SDS011;21084;51.098;14.506;2022-09-20T09:44:45;6.22;;;3.35;;
34872;SDS011;21084;51.098;14.506;2022-09-20T09:47:51;9.25;;;3.85;;
34872;SDS011;21084;51.098;14.506;2022-09-20T09:50:43;4.93;;;3.55;;
34872;SDS011;21084;51.098;14.506;2022-09-20T09:53:13;4.75;;;3.28;;
34872;SDS011;21084;51.098;14.506;2022-09-20T09:55:51;6.40;;;3.10;;
34872;SDS011;21084;51.098;14.506;2022-09-20T09:58:32;7.18;;;3.00;;
34872;SDS011;21084;51.098;14.506;2022-09-20T10:01:11;4.80;;;3.38;;
34872;SDS011;21084;51.098;14.506;2022-09-20T10:04:03;6.82;;;2.88;;
34872;SDS011;21084;51.098;14.506;2022-09-20T10:06:41;5.55;;;2.75;;
34872;SDS011;21084;51.098;14.506;2022-09-20T10:09:20;3.90;;;2.67;;
34872;SDS011;21084;51.098;14.506;2022-09-20T10:12:06;5.70;;;2.53;;
34872;SDS011;21084;51.098;14.506;2022-09-20T10:14:46;4.00;;;2.30;;
34872;SDS011;21084;51.098;14.506;2022-09-20T10:17:27;3.80;;;2.33;;
34872;SDS011;21084;51.098;14.506;2022-09-20T10:20:08;4.18;;;2.42;;
34872;SDS011;21084;51.098;14.506;2022-09-20T10:22:55;5.32;;;2.83;;
34872;SDS011;21084;51.098;14.506;2022-09-20T10:25:55;6.95;;;2.33;;
34872;SDS011;21084;51.098;14.506;2022-09-20T10:28:35;6.85;;;3.08;;
34872;SDS011;21084;51.098;14.506;2022-09-20T10:31:19;3.88;;;1.67;;
34872;SDS011;21084;51.098;14.506;2022-09-20T10:34:05;7.03;;;2.13;;
34872;SDS011;21084;51.098;14.506;2022-09-20T10:36:58;2.53;;;1.73;;
34872;SDS011;21084;51.098;14.506;2022-09-20T10:39:28;2.95;;;1.50;;
34872;SDS011;21084;51.098;14.506;2022-09-20T10:42:02;6.00;;;2.08;;
34872;SDS011;21084;51.098;14.506;2022-09-20T10:45:10;3.28;;;1.58;;
34872;SDS011;21084;51.098;14.506;2022-09-20T10:48:08;6.10;;;3.88;;
34872;SDS011;21084;51.098;14.506;2022-09-20T10:50:50;2.38;;;1.55;;
34872;SDS011;21084;51.098;14.506;2022-09-20T10:53:31;2.97;;;1.60;;
34872;SDS011;21084;51.098;14.506;2022-09-20T10:56:10;3.13;;;1.85;;
34872;SDS011;21084;51.098;14.506;2022-09-20T10:59:08;4.50;;;1.40;;
34872;SDS011;21084;51.098;14.506;2022-09-20T11:02:05;10.05;;;2.17;;
34872;SDS011;21084;51.098;14.506;2022-09-20T11:07:49;5.50;;;1.23;;
34872;SDS011;21084;51.098;14.506;2022-09-20T11:10:28;2.65;;;1.40;;
34872;SDS011;21084;51.098;14.506;2022-09-20T11:13:05;3.80;;;1.50;;
34872;SDS011;21084;51.098;14.506;2022-09-20T11:15:40;3.28;;;1.63;;
34872;SDS011;21084;51.098;14.506;2022-09-20T11:18:15;2.55;;;1.30;;
34872;SDS011;21084;51.098;14.506;2022-09-20T11:20:50;2.33;;;1.20;;
34872;SDS011;21084;51.098;14.506;2022-09-20T11:23:27;4.47;;;1.20;;
34872;SDS011;21084;51.098;14.506;2022-09-20T11:26:06;4.45;;;1.30;;
34872;SDS011;21084;51.098;14.506;2022-09-20T11:28:38;4.20;;;1.75;;
34872;SDS011;21084;51.098;14.506;2022-09-20T11:31:10;3.67;;;1.20;;
34872;SDS011;21084;51.098;14.506;2022-09-20T11:33:46;1.83;;;1.10;;
34872;SDS011;21084;51.098;14.506;2022-09-20T11:36:20;4.65;;;1.38;;
34872;SDS011;21084;51.098;14.506;2022-09-20T11:38:53;1.92;;;1.45;;
34872;SDS011;21084;51.098;14.506;2022-09-20T11:41:26;4.47;;;1.10;;
34872;SDS011;21084;51.098;14.506;2022-09-20T11:43:58;1.40;;;1.00;;
34872;SDS011;21084;51.098;14.506;2022-09-20T11:46:37;2.78;;;1.20;;
34872;SDS011;21084;51.098;14.506;2022-09-20T11:49:12;1.58;;;1.15;;
34872;SDS011;21084;51.098;14.506;2022-09-20T11:51:51;3.25;;;1.60;;
34872;SDS011;21084;51.098;14.506;2022-09-20T11:54:42;2.53;;;1.45;;
34872;SDS011;21084;51.098;14.506;2022-09-20T11:57:24;5.13;;;1.80;;
34872;SDS011;21084;51.098;14.506;2022-09-20T11:59:57;5.72;;;2.30;;
34872;SDS011;21084;51.098;14.506;2022-09-20T12:02:32;4.43;;;2.00;;
34872;SDS011;21084;51.098;14.506;2022-09-20T12:05:04;3.08;;;1.98;;
34872;SDS011;21084;51.098;14.506;2022-09-20T12:07:36;4.45;;;2.00;;
34872;SDS011;21084;51.098;14.506;2022-09-20T12:10:17;6.10;;;2.30;;
34872;SDS011;21084;51.098;14.506;2022-09-20T12:12:53;2.25;;;1.40;;
34872;SDS011;21084;51.098;14.506;2022-09-20T12:15:25;7.93;;;1.88;;
34872;SDS011;21084;51.098;14.506;2022-09-20T12:18:26;3.20;;;1.42;;
34872;SDS011;21084;51.098;14.506;2022-09-20T12:21:00;1.33;;;1.00;;
34872;SDS011;21084;51.098;14.506;2022-09-20T12:26:42;0.98;;;0.70;;
34872;SDS011;21084;51.098;14.506;2022-09-20T12:41:24;31.50;;;18.60;;
34872;SDS011;21084;51.098;14.506;2022-09-20T12:44:02;25.75;;;15.70;;
34872;SDS011;21084;51.098;14.506;2022-09-20T12:46:49;6.57;;;3.85;;
34872;SDS011;21084;51.098;14.506;2022-09-20T12:49:31;8.25;;;7.28;;
34872;SDS011;21084;51.098;14.506;2022-09-20T12:52:25;4.28;;;2.20;;
34872;SDS011;21084;51.098;14.506;2022-09-20T12:55:38;8.80;;;3.88;;
34872;SDS011;21084;51.098;14.506;2022-09-20T12:58:17;4.57;;;1.90;;
34872;SDS011;21084;51.098;14.506;2022-09-20T13:07:34;2.88;;;1.65;;
34872;SDS011;21084;51.098;14.506;2022-09-20T13:10:16;4.25;;;1.63;;
34872;SDS011;21084;51.098;14.506;2022-09-20T13:12:57;3.10;;;1.35;;
34872;SDS011;21084;51.098;14.506;2022-09-20T13:15:28;5.63;;;1.33;;
34872;SDS011;21084;51.098;14.506;2022-09-20T13:17:58;3.42;;;0.93;;
34872;SDS011;21084;51.098;14.506;2022-09-20T13:23:02;2.90;;;1.40;;
34872;SDS011;21084;51.098;14.506;2022-09-20T13:25:31;5.53;;;1.42;;
34872;SDS011;21084;51.098;14.506;2022-09-20T13:28:04;2.60;;;1.55;;
34872;SDS011;21084;51.098;14.506;2022-09-20T13:30:35;3.50;;;1.40;;
34872;SDS011;21084;51.098;14.506;2022-09-20T13:33:13;3.30;;;1.10;;
34872;SDS011;21084;51.098;14.506;2022-09-20T13:35:45;4.25;;;1.17;;
34872;SDS011;21084;51.098;14.506;2022-09-20T13:38:16;3.85;;;1.25;;
34872;SDS011;21084;51.098;14.506;2022-09-20T13:40:50;2.25;;;1.20;;
34872;SDS011;21084;51.098;14.506;2022-09-20T13:43:25;2.08;;;1.15;;
34872;SDS011;21084;51.098;14.506;2022-09-20T13:45:56;1.67;;;1.05;;
34872;SDS011;21084;51.098;14.506;2022-09-20T13:48:26;2.38;;;1.05;;
34872;SDS011;21084;51.098;14.506;2022-09-20T13:50:56;1.60;;;1.20;;
34872;SDS011;21084;51.098;14.506;2022-09-20T13:53:25;3.60;;;1.13;;
34872;SDS011;21084;51.098;14.506;2022-09-20T13:56:08;2.30;;;1.10;;
34872;SDS011;21084;51.098;14.506;2022-09-20T13:58:40;1.25;;;0.70;;
34872;SDS011;21084;51.098;14.506;2022-09-20T14:01:18;1.83;;;0.70;;
34872;SDS011;21084;51.098;14.506;2022-09-20T14:03:49;0.75;;;0.50;;
34872;SDS011;21084;51.098;14.506;2022-09-20T14:06:21;1.92;;;1.13;;
34872;SDS011;21084;51.098;14.506;2022-09-20T14:08:53;1.38;;;0.90;;
34872;SDS011;21084;51.098;14.506;2022-09-20T14:11:22;1.02;;;0.50;;
34872;SDS011;21084;51.098;14.506;2022-09-20T14:13:54;1.20;;;0.80;;
34872;SDS011;21084;51.098;14.506;2022-09-20T14:16:26;1.20;;;0.63;;
34872;SDS011;21084;51.098;14.506;2022-09-20T14:18:56;1.17;;;0.85;;
34872;SDS011;21084;51.098;14.506;2022-09-20T14:21:27;2.08;;;0.52;;
34872;SDS011;21084;51.098;14.506;2022-09-20T14:24:00;0.40;;;0.40;;
34872;SDS011;21084;51.098;14.506;2022-09-20T14:26:33;0.82;;;0.70;;
34872;SDS011;21084;51.098;14.506;2022-09-20T14:31:55;3.08;;;0.80;;
34872;SDS011;21084;51.098;14.506;2022-09-20T14:34:26;4.53;;;1.00;;
34872;SDS011;21084;51.098;14.506;2022-09-20T14:37:01;4.20;;;1.77;;
34872;SDS011;21084;51.098;14.506;2022-09-20T14:39:33;18.38;;;8.30;;
34872;SDS011;21084;51.098;14.506;2022-09-20T14:42:14;8.77;;;4.97;;
34872;SDS011;21084;51.098;14.506;2022-09-20T14:44:48;3.53;;;1.42;;
34872;SDS011;21084;51.098;14.506;2022-09-20T14:47:23;2.15;;;1.60;;
34872;SDS011;21084;51.098;14.506;2022-09-20T14:49:53;2.85;;;1.75;;
34872;SDS011;21084;51.098;14.506;2022-09-20T14:52:39;2.85;;;1.00;;
34872;SDS011;21084;51.098;14.506;2022-09-20T14:55:17;2.90;;;1.00;;
34872;SDS011;21084;51.098;14.506;2022-09-20T14:57:56;11.90;;;6.40;;
34872;SDS011;21084;51.098;14.506;2022-09-20T15:00:26;3.92;;;1.88;;
34872;SDS011;21084;51.098;14.506;2022-09-20T15:03:01;3.22;;;1.77;;
34872;SDS011;21084;51.098;14.506;2022-09-20T15:05:33;5.80;;;3.22;;
34872;SDS011;21084;51.098;14.506;2022-09-20T15:08:02;19.52;;;11.55;;
34872;SDS011;21084;51.098;14.506;2022-09-20T15:10:30;3.63;;;1.90;;
34872;SDS011;21084;51.098;14.506;2022-09-20T15:13:23;5.93;;;2.83;;
34872;SDS011;21084;51.098;14.506;2022-09-20T15:15:52;5.40;;;3.17;;
34872;SDS011;21084;51.098;14.506;2022-09-20T15:18:21;4.13;;;2.60;;
34872;SDS011;21084;51.098;14.506;2022-09-20T15:20:51;7.97;;;4.93;;
34872;SDS011;21084;51.098;14.506;2022-09-20T15:23:22;7.10;;;4.15;;
34872;SDS011;21084;51.098;14.506;2022-09-20T15:25:51;7.60;;;4.00;;
34872;SDS011;21084;51.098;14.506;2022-09-20T15:30:48;4.68;;;3.22;;
34872;SDS011;21084;51.098;14.506;2022-09-20T15:33:17;3.17;;;2.03;;
34872;SDS011;21084;51.098;14.506;2022-09-20T15:35:46;4.88;;;2.22;;
34872;SDS011;21084;51.098;14.506;2022-09-20T15:38:15;2.92;;;1.75;;
34872;SDS011;21084;51.098;14.506;2022-09-20T15:40:45;7.22;;;3.95;;
34872;SDS011;21084;51.098;14.506;2022-09-20T15:43:16;3.67;;;2.28;;
34872;SDS011;21084;51.098;14.506;2022-09-20T15:45:56;5.35;;;2.50;;
34872;SDS011;21084;51.098;14.506;2022-09-20T15:48:30;3.50;;;2.72;;
34872;SDS011;21084;51.098;14.506;2022-09-20T15:51:08;8.73;;;3.47;;
34872;SDS011;21084;51.098;14.506;2022-09-20T15:53:47;3.10;;;2.22;;
34872;SDS011;21084;51.098;14.506;2022-09-20T16:01:25;11.30;;;6.82;;
34872;SDS011;21084;51.098;14.506;2022-09-20T16:03:55;20.77;;;11.15;;
34872;SDS011;21084;51.098;14.506;2022-09-20T16:06:23;72.10;;;41.40;;
34872;SDS011;21084;51.098;14.506;2022-09-20T16:08:52;9.57;;;5.68;;
34872;SDS011;21084;51.098;14.506;2022-09-20T16:11:23;5.75;;;2.88;;
34872;SDS011;21084;51.098;14.506;2022-09-20T16:13:55;4.90;;;3.50;;
34872;SDS011;21084;51.098;14.506;2022-09-20T16:16:25;3.83;;;2.55;;
34872;SDS011;21084;51.098;14.506;2022-09-20T16:21:42;3.90;;;2.08;;
34872;SDS011;21084;51.098;14.506;2022-09-20T16:24:12;6.85;;;2.72;;
34872;SDS011;21084;51.098;14.506;2022-09-20T16:26:40;4.72;;;2.40;;
34872;SDS011;21084;51.098;14.506;2022-09-20T16:31:40;3.35;;;2.20;;
34872;SDS011;21084;51.098;14.506;2022-09-20T16:34:13;5.28;;;3.85;;
34872;SDS011;21084;51.098;14.506;2022-09-20T16:36:44;6.70;;;4.18;;
34872;SDS011;21084;51.098;14.506;2022-09-20T16:41:42;2.80;;;1.60;;
34872;SDS011;21084;51.098;14.506;2022-09-20T16:44:13;5.50;;;3.45;;
34872;SDS011;21084;51.098;14.506;2022-09-20T16:46:41;3.25;;;2.22;;
34872;SDS011;21084;51.098;14.506;2022-09-20T16:49:10;3.00;;;1.83;;
34872;SDS011;21084;51.098;14.506;2022-09-20T16:51:39;3.00;;;1.70;;
34872;SDS011;21084;51.098;14.506;2022-09-20T16:54:09;4.13;;;2.20;;
34872;SDS011;21084;51.098;14.506;2022-09-20T16:56:39;4.72;;;3.03;;
34872;SDS011;21084;51.098;14.506;2022-09-20T16:59:10;4.25;;;3.03;;
34872;SDS011;21084;51.098;14.506;2022-09-20T17:01:42;10.80;;;4.97;;
34872;SDS011;21084;51.098;14.506;2022-09-20T17:04:10;6.22;;;4.07;;
34872;SDS011;21084;51.098;14.506;2022-09-20T17:06:40;9.30;;;4.38;;
34872;SDS011;21084;51.098;14.506;2022-09-20T17:09:09;11.07;;;6.20;;